sensor_id;sensor_type;location;lat;lon;timestamp;pressure;altitude;pressure_sealevel;temperature;humidity
20350;BME280;10332;50.208;18.988;2023-03-21T00:01:53;97997.19;;;11.36;95.00
20350;BME280;10332;50.208;18.988;2023-03-21T00:04:24;97991.53;;;11.42;94.76
20350;BME280;10332;50.208;18.988;2023-03-21T00:06:55;97995.69;;;11.45;94.71
20350;BME280;10332;50.208;18.988;2023-03-21T00:09:23;97992.72;;;11.49;94.43
20350;BME280;10332;50.208;18.988;2023-03-21T00:11:50;97985.63;;;11.51;94.16
20350;BME280;10332;50.208;18.988;2023-03-21T00:14:18;97985.38;;;11.54;93.84
20350;BME280;10332;50.208;18.988;2023-03-21T00:16:47;97988.22;;;11.51;94.14
20350;BME280;10332;50.208;18.988;2023-03-21T00:19:19;97989.78;;;11.54;94.00
20350;BME280;10332;50.208;18.988;2023-03-21T00:21:47;97987.72;;;11.46;94.82
20350;BME280;10332;50.208;18.988;2023-03-21T00:24:36;97987.72;;;11.46;95.01
20350;BME280;10332;50.208;18.988;2023-03-21T00:27:04;97983.75;;;11.41;95.40
20350;BME280;10332;50.208;18.988;2023-03-21T00:29:52;97982.09;;;11.40;95.51
20350;BME280;10332;50.208;18.988;2023-03-21T00:32:20;97985.78;;;11.37;95.77
20350;BME280;10332;50.208;18.988;2023-03-21T00:34:48;97989.09;;;11.39;95.94
20350;BME280;10332;50.208;18.988;2023-03-21T00:37:36;97985.53;;;11.40;96.21
20350;BME280;10332;50.208;18.988;2023-03-21T00:40:04;97982.06;;;11.28;96.98
20350;BME280;10332;50.208;18.988;2023-03-21T00:42:51;97981.34;;;11.26;97.48
20350;BME280;10332;50.208;18.988;2023-03-21T00:45:19;97982.06;;;11.28;97.68
20350;BME280;10332;50.208;18.988;2023-03-21T00:47:48;97982.41;;;11.24;98.16
20350;BME280;10332;50.208;18.988;2023-03-21T00:50:16;97984.91;;;11.25;98.18
20350;BME280;10332;50.208;18.988;2023-03-21T00:52:44;97973.63;;;11.25;98.19
20350;BME280;10332;50.208;18.988;2023-03-21T00:55:18;97993.72;;;11.12;98.85
20350;BME280;10332;50.208;18.988;2023-03-21T00:57:45;97982.72;;;11.19;98.92
20350;BME280;10332;50.208;18.988;2023-03-21T01:00:22;97984.63;;;11.17;99.37
20350;BME280;10332;50.208;18.988;2023-03-21T01:02:50;97997.81;;;11.16;99.39
20350;BME280;10332;50.208;18.988;2023-03-21T01:05:40;97990.81;;;11.03;100.00
20350;BME280;10332;50.208;18.988;2023-03-21T01:08:27;97993.38;;;10.92;100.00
20350;BME280;10332;50.208;18.988;2023-03-21T01:11:16;97991.00;;;10.89;100.00
20350;BME280;10332;50.208;18.988;2023-03-21T01:13:44;97985.38;;;10.83;100.00
20350;BME280;10332;50.208;18.988;2023-03-21T01:16:24;97987.75;;;10.86;100.00
20350;BME280;10332;50.208;18.988;2023-03-21T01:18:52;97989.88;;;10.80;100.00
20350;BME280;10332;50.208;18.988;2023-03-21T01:21:20;97984.66;;;10.80;100.00
20350;BME280;10332;50.208;18.988;2023-03-21T01:23:48;97991.31;;;10.85;100.00
20350;BME280;10332;50.208;18.988;2023-03-21T01:26:15;97983.59;;;10.83;100.00
20350;BME280;10332;50.208;18.988;2023-03-21T01:28:43;97976.50;;;10.72;100.00
20350;BME280;10332;50.208;18.988;2023-03-21T01:31:14;97985.19;;;10.73;100.00
20350;BME280;10332;50.208;18.988;2023-03-21T01:33:43;97979.97;;;10.73;100.00
20350;BME280;10332;50.208;18.988;2023-03-21T01:36:21;97973.78;;;10.74;100.00
20350;BME280;10332;50.208;18.988;2023-03-21T01:38:51;97973.97;;;10.84;100.00
20350;BME280;10332;50.208;18.988;2023-03-21T01:41:40;97977.94;;;10.89;100.00
20350;BME280;10332;50.208;18.988;2023-03-21T01:44:18;97972.41;;;10.81;100.00
20350;BME280;10332;50.208;18.988;2023-03-21T01:46:51;97974.09;;;10.82;100.00
20350;BME280;10332;50.208;18.988;2023-03-21T01:49:45;97969.34;;;10.87;100.00
20350;BME280;10332;50.208;18.988;2023-03-21T01:52:19;97972.19;;;10.84;100.00
20350;BME280;10332;50.208;18.988;2023-03-21T01:55:07;97964.13;;;10.87;100.00
20350;BME280;10332;50.208;18.988;2023-03-21T01:57:45;97963.22;;;10.88;100.00
20350;BME280;10332;50.208;18.988;2023-03-21T02:00:32;97970.22;;;10.88;100.00
20350;BME280;10332;50.208;18.988;2023-03-21T02:03:05;97964.34;;;10.84;100.00
20350;BME280;10332;50.208;18.988;2023-03-21T02:06:04;97959.47;;;10.79;100.00
20350;BME280;10332;50.208;18.988;2023-03-21T02:08:34;97959.13;;;10.84;100.00
20350;BME280;10332;50.208;18.988;2023-03-21T02:11:07;97952.75;;;10.88;100.00
20350;BME280;10332;50.208;18.988;2023-03-21T02:13:36;97955.38;;;10.88;100.00
20350;BME280;10332;50.208;18.988;2023-03-21T02:16:50;97953.06;;;10.84;100.00
20350;BME280;10332;50.208;18.988;2023-03-21T02:26:25;97946.91;;;10.85;100.00
20350;BME280;10332;50.208;18.988;2023-03-21T02:29:34;97954.84;;;10.83;100.00
20350;BME280;10332;50.208;18.988;2023-03-21T02:32:33;97955.81;;;10.82;100.00
20350;BME280;10332;50.208;18.988;2023-03-21T02:38:40;97961.78;;;10.71;100.00
20350;BME280;10332;50.208;18.988;2023-03-21T02:41:20;97960.00;;;10.72;100.00
20350;BME280;10332;50.208;18.988;2023-03-21T02:44:06;97966.19;;;10.58;100.00
20350;BME280;10332;50.208;18.988;2023-03-21T02:46:57;97964.88;;;10.52;100.00
20350;BME280;10332;50.208;18.988;2023-03-21T02:50:04;97958.19;;;10.48;100.00
20350;BME280;10332;50.208;18.988;2023-03-21T02:52:35;97964.03;;;10.52;100.00
20350;BME280;10332;50.208;18.988;2023-03-21T02:55:25;97955.25;;;10.40;100.00
20350;BME280;10332;50.208;18.988;2023-03-21T02:57:56;97962.69;;;10.46;100.00
20350;BME280;10332;50.208;18.988;2023-03-21T03:00:39;97956.28;;;10.50;100.00
20350;BME280;10332;50.208;18.988;2023-03-21T03:03:12;97952.97;;;10.48;100.00
20350;BME280;10332;50.208;18.988;2023-03-21T03:06:00;97957.75;;;10.55;100.00
20350;BME280;10332;50.208;18.988;2023-03-21T03:08:41;97954.19;;;10.56;100.00
20350;BME280;10332;50.208;18.988;2023-03-21T03:11:34;97959.41;;;10.56;100.00
20350;BME280;10332;50.208;18.988;2023-03-21T03:20:32;97949.84;;;10.43;100.00
20350;BME280;10332;50.208;18.988;2023-03-21T03:26:07;97950.88;;;10.41;100.00
20350;BME280;10332;50.208;18.988;2023-03-21T03:28:41;97956.22;;;10.39;100.00
20350;BME280;10332;50.208;18.988;2023-03-21T03:31:17;97947.97;;;10.33;100.00
20350;BME280;10332;50.208;18.988;2023-03-21T03:33:52;97948.59;;;10.36;100.00
20350;BME280;10332;50.208;18.988;2023-03-21T03:36:27;97954.25;;;10.30;100.00
20350;BME280;10332;50.208;18.988;2023-03-21T03:39:05;97955.91;;;10.31;100.00
20350;BME280;10332;50.208;18.988;2023-03-21T03:44:31;97942.56;;;10.36;100.00
20350;BME280;10332;50.208;18.988;2023-03-21T03:47:11;97947.69;;;10.25;100.00
20350;BME280;10332;50.208;18.988;2023-03-21T03:50:16;97943.50;;;10.22;100.00
20350;BME280;10332;50.208;18.988;2023-03-21T03:52:58;97946.28;;;10.19;100.00
20350;BME280;10332;50.208;18.988;2023-03-21T03:55:36;97939.72;;;10.13;100.00
20350;BME280;10332;50.208;18.988;2023-03-21T03:58:04;97944.63;;;10.18;100.00
20350;BME280;10332;50.208;18.988;2023-03-21T04:00:46;97952.97;;;10.23;100.00
20350;BME280;10332;50.208;18.988;2023-03-21T04:03:15;97953.19;;;10.20;100.00
20350;BME280;10332;50.208;18.988;2023-03-21T04:05:43;97943.56;;;10.20;100.00
20350;BME280;10332;50.208;18.988;2023-03-21T04:08:15;97945.91;;;10.25;100.00
20350;BME280;10332;50.208;18.988;2023-03-21T04:10:43;97951.72;;;10.16;100.00
20350;BME280;10332;50.208;18.988;2023-03-21T04:13:10;97951.00;;;10.27;100.00
20350;BME280;10332;50.208;18.988;2023-03-21T04:15:38;97946.81;;;10.24;100.00
20350;BME280;10332;50.208;18.988;2023-03-21T04:18:05;97956.53;;;10.35;100.00
20350;BME280;10332;50.208;18.988;2023-03-21T04:20:33;97962.66;;;10.21;100.00
20350;BME280;10332;50.208;18.988;2023-03-21T04:23:04;97953.41;;;10.17;100.00
20350;BME280;10332;50.208;18.988;2023-03-21T04:25:36;97946.28;;;10.06;100.00
20350;BME280;10332;50.208;18.988;2023-03-21T04:28:13;97943.91;;;10.03;100.00
20350;BME280;10332;50.208;18.988;2023-03-21T04:30:41;97949.63;;;10.08;100.00
20350;BME280;10332;50.208;18.988;2023-03-21T04:33:26;97948.69;;;10.09;100.00
20350;BME280;10332;50.208;18.988;2023-03-21T04:35:54;97956.53;;;10.09;100.00
20350;BME280;10332;50.208;18.988;2023-03-21T04:38:23;97950.88;;;10.03;100.00
20350;BME280;10332;50.208;18.988;2023-03-21T04:40:51;97950.66;;;10.06;100.00
20350;BME280;10332;50.208;18.988;2023-03-21T04:43:18;97944.31;;;10.10;100.00
20350;BME280;10332;50.208;18.988;2023-03-21T04:45:47;97948.38;;;10.14;100.00
20350;BME280;10332;50.208;18.988;2023-03-21T04:48:14;97950.03;;;10.15;100.00
20350;BME280;10332;50.208;18.988;2023-03-21T04:50:43;97945.16;;;10.23;100.00
20350;BME280;10332;50.208;18.988;2023-03-21T04:53:11;97943.16;;;10.14;100.00
20350;BME280;10332;50.208;18.988;2023-03-21T04:55:39;97946.41;;;10.17;100.00
20350;BME280;10332;50.208;18.988;2023-03-21T04:58:06;97952.97;;;10.10;100.00
20350;BME280;10332;50.208;18.988;2023-03-21T05:00:34;97951.63;;;10.17;100.00
20350;BME280;10332;50.208;18.988;2023-03-21T05:03:06;97947.13;;;10.19;100.00
20350;BME280;10332;50.208;18.988;2023-03-21T05:05:36;97958.81;;;10.14;100.00
20350;BME280;10332;50.208;18.988;2023-03-21T05:08:05;97953.41;;;10.17;100.00
20350;BME280;10332;50.208;18.988;2023-03-21T05:10:32;97951.91;;;10.13;100.00
20350;BME280;10332;50.208;18.988;2023-03-21T05:13:00;97956.09;;;10.15;100.00
20350;BME280;10332;50.208;18.988;2023-03-21T05:15:27;97949.13;;;10.16;100.00
20350;BME280;10332;50.208;18.988;2023-03-21T05:17:55;97940.75;;;10.11;100.00
20350;BME280;10332;50.208;18.988;2023-03-21T05:20:25;97938.28;;;10.09;100.00
20350;BME280;10332;50.208;18.988;2023-03-21T05:22:52;97940.97;;;10.20;100.00
20350;BME280;10332;50.208;18.988;2023-03-21T05:25:19;97949.09;;;10.03;100.00
20350;BME280;10332;50.208;18.988;2023-03-21T05:28:01;97955.03;;;10.05;100.00
20350;BME280;10332;50.208;18.988;2023-03-21T05:30:29;97958.31;;;10.09;100.00
20350;BME280;10332;50.208;18.988;2023-03-21T05:32:57;97959.03;;;10.11;100.00
20350;BME280;10332;50.208;18.988;2023-03-21T05:35:25;97961.41;;;10.14;100.00
20350;BME280;10332;50.208;18.988;2023-03-21T05:37:53;97972.78;;;10.13;100.00
20350;BME280;10332;50.208;18.988;2023-03-21T05:40:20;97968.63;;;10.23;100.00
20350;BME280;10332;50.208;18.988;2023-03-21T05:42:48;97966.22;;;10.33;100.00
20350;BME280;10332;50.208;18.988;2023-03-21T05:45:15;97967.91;;;10.46;100.00
20350;BME280;10332;50.208;18.988;2023-03-21T05:47:43;97973.59;;;10.64;100.00
20350;BME280;10332;50.208;18.988;2023-03-21T05:50:12;97969.50;;;10.73;100.00
20350;BME280;10332;50.208;18.988;2023-03-21T05:52:39;97969.69;;;10.83;100.00
20350;BME280;10332;50.208;18.988;2023-03-21T05:55:07;97965.19;;;10.85;99.27
20350;BME280;10332;50.208;18.988;2023-03-21T05:57:34;97963.69;;;10.93;99.09
20350;BME280;10332;50.208;18.988;2023-03-21T06:00:07;97972.19;;;10.84;99.03
20350;BME280;10332;50.208;18.988;2023-03-21T06:02:34;97972.47;;;10.92;98.71
20350;BME280;10332;50.208;18.988;2023-03-21T06:05:02;97976.88;;;10.92;98.48
20350;BME280;10332;50.208;18.988;2023-03-21T06:07:30;97970.38;;;10.97;97.64
20350;BME280;10332;50.208;18.988;2023-03-21T06:09:58;97969.75;;;10.94;97.63
20350;BME280;10332;50.208;18.988;2023-03-21T06:12:25;97968.16;;;11.04;97.20
20350;BME280;10332;50.208;18.988;2023-03-21T06:14:53;97968.59;;;11.22;96.52
20350;BME280;10332;50.208;18.988;2023-03-21T06:17:20;97969.16;;;11.38;95.96
20350;BME280;10332;50.208;18.988;2023-03-21T06:19:48;97971.81;;;11.49;95.05
20350;BME280;10332;50.208;18.988;2023-03-21T06:22:15;97971.44;;;11.43;94.85
20350;BME280;10332;50.208;18.988;2023-03-21T06:24:43;97973.66;;;11.36;94.79
20350;BME280;10332;50.208;18.988;2023-03-21T06:27:10;97977.09;;;11.36;95.01
20350;BME280;10332;50.208;18.988;2023-03-21T06:29:38;97986.50;;;11.39;94.64
20350;BME280;10332;50.208;18.988;2023-03-21T06:32:06;97984.44;;;11.31;94.94
20350;BME280;10332;50.208;18.988;2023-03-21T06:34:33;97984.75;;;11.16;94.95
20350;BME280;10332;50.208;18.988;2023-03-21T06:37:01;97986.16;;;11.20;95.12
20350;BME280;10332;50.208;18.988;2023-03-21T06:39:30;97979.84;;;11.35;95.10
20350;BME280;10332;50.208;18.988;2023-03-21T06:41:59;97987.28;;;11.52;94.79
20350;BME280;10332;50.208;18.988;2023-03-21T06:44:28;97990.38;;;11.57;94.64
20350;BME280;10332;50.208;18.988;2023-03-21T06:46:55;97984.25;;;11.70;94.15
20350;BME280;10332;50.208;18.988;2023-03-21T06:49:24;97987.22;;;11.76;93.48
20350;BME280;10332;50.208;18.988;2023-03-21T06:51:52;97996.81;;;11.88;93.04
20350;BME280;10332;50.208;18.988;2023-03-21T06:54:20;97993.59;;;11.85;93.05
20350;BME280;10332;50.208;18.988;2023-03-21T06:56:48;98005.94;;;11.83;93.32
20350;BME280;10332;50.208;18.988;2023-03-21T06:59:16;97999.47;;;11.76;93.82
20350;BME280;10332;50.208;18.988;2023-03-21T07:01:43;98003.03;;;11.75;93.77
20350;BME280;10332;50.208;18.988;2023-03-21T07:04:11;98003.56;;;11.56;94.19
20350;BME280;10332;50.208;18.988;2023-03-21T07:06:38;98012.25;;;11.80;93.88
20350;BME280;10332;50.208;18.988;2023-03-21T07:09:06;98013.56;;;11.86;93.49
20350;BME280;10332;50.208;18.988;2023-03-21T07:11:35;98009.66;;;11.91;93.08
20350;BME280;10332;50.208;18.988;2023-03-21T07:14:03;98019.56;;;11.75;93.71
20350;BME280;10332;50.208;18.988;2023-03-21T07:16:31;98020.88;;;11.70;93.98
20350;BME280;10332;50.208;18.988;2023-03-21T07:18:59;98025.53;;;11.53;93.81
20350;BME280;10332;50.208;18.988;2023-03-21T07:21:26;98024.75;;;11.40;94.52
20350;BME280;10332;50.208;18.988;2023-03-21T07:23:54;98035.69;;;11.34;95.12
20350;BME280;10332;50.208;18.988;2023-03-21T07:26:21;98038.84;;;11.26;95.58
20350;BME280;10332;50.208;18.988;2023-03-21T07:28:49;98031.94;;;11.25;95.43
20350;BME280;10332;50.208;18.988;2023-03-21T07:31:16;98036.34;;;11.25;95.68
20350;BME280;10332;50.208;18.988;2023-03-21T07:33:45;98031.41;;;11.33;95.64
20350;BME280;10332;50.208;18.988;2023-03-21T07:36:14;98020.81;;;11.34;95.61
20350;BME280;10332;50.208;18.988;2023-03-21T07:38:44;98031.16;;;11.36;95.41
20350;BME280;10332;50.208;18.988;2023-03-21T07:41:12;98031.44;;;11.44;95.08
20350;BME280;10332;50.208;18.988;2023-03-21T07:43:45;98023.41;;;11.58;94.85
20350;BME280;10332;50.208;18.988;2023-03-21T07:46:12;98029.38;;;11.84;94.20
20350;BME280;10332;50.208;18.988;2023-03-21T07:48:40;98026.44;;;11.89;93.76
20350;BME280;10332;50.208;18.988;2023-03-21T07:51:08;98024.97;;;11.85;93.47
20350;BME280;10332;50.208;18.988;2023-03-21T07:53:36;98031.03;;;11.85;92.40
20350;BME280;10332;50.208;18.988;2023-03-21T07:56:03;98029.66;;;11.69;92.87
20350;BME280;10332;50.208;18.988;2023-03-21T07:58:32;98028.78;;;11.68;93.30
20350;BME280;10332;50.208;18.988;2023-03-21T08:01:00;98028.88;;;11.55;94.13
20350;BME280;10332;50.208;18.988;2023-03-21T08:03:29;98029.75;;;11.91;93.55
20350;BME280;10332;50.208;18.988;2023-03-21T08:05:59;98029.59;;;12.16;91.93
20350;BME280;10332;50.208;18.988;2023-03-21T08:08:30;98037.69;;;12.25;91.60
20350;BME280;10332;50.208;18.988;2023-03-21T08:10:57;98031.16;;;12.30;91.45
20350;BME280;10332;50.208;18.988;2023-03-21T08:13:25;98040.53;;;12.21;91.48
20350;BME280;10332;50.208;18.988;2023-03-21T08:15:52;98041.97;;;12.14;91.35
20350;BME280;10332;50.208;18.988;2023-03-21T08:18:20;98038.88;;;12.20;90.59
20350;BME280;10332;50.208;18.988;2023-03-21T08:20:56;98042.31;;;12.21;90.53
20350;BME280;10332;50.208;18.988;2023-03-21T08:23:24;98047.53;;;12.21;90.55
20350;BME280;10332;50.208;18.988;2023-03-21T08:25:54;98049.06;;;12.12;90.98
20350;BME280;10332;50.208;18.988;2023-03-21T08:28:23;98048.56;;;11.96;92.06
20350;BME280;10332;50.208;18.988;2023-03-21T08:30:51;98049.69;;;12.16;91.59
20350;BME280;10332;50.208;18.988;2023-03-21T08:33:19;98043.66;;;12.38;91.00
20350;BME280;10332;50.208;18.988;2023-03-21T08:35:46;98045.47;;;12.60;89.97
20350;BME280;10332;50.208;18.988;2023-03-21T08:38:14;98040.56;;;12.66;89.60
20350;BME280;10332;50.208;18.988;2023-03-21T08:40:43;98040.81;;;12.74;88.82
20350;BME280;10332;50.208;18.988;2023-03-21T08:43:10;98047.97;;;12.72;88.87
20350;BME280;10332;50.208;18.988;2023-03-21T08:45:40;98049.66;;;12.96;88.59
20350;BME280;10332;50.208;18.988;2023-03-21T08:48:08;98057.00;;;13.13;87.86
20350;BME280;10332;50.208;18.988;2023-03-21T08:50:35;98043.66;;;13.16;86.99
20350;BME280;10332;50.208;18.988;2023-03-21T08:53:03;98052.59;;;13.14;85.86
20350;BME280;10332;50.208;18.988;2023-03-21T08:55:31;98058.78;;;13.35;85.66
20350;BME280;10332;50.208;18.988;2023-03-21T08:57:59;98059.69;;;13.45;85.49
20350;BME280;10332;50.208;18.988;2023-03-21T09:00:28;98056.84;;;13.48;85.46
20350;BME280;10332;50.208;18.988;2023-03-21T09:02:56;98061.19;;;13.70;84.55
20350;BME280;10332;50.208;18.988;2023-03-21T09:05:24;98061.34;;;13.89;83.77
20350;BME280;10332;50.208;18.988;2023-03-21T09:07:53;98067.00;;;14.06;82.42
20350;BME280;10332;50.208;18.988;2023-03-21T09:10:22;98060.38;;;15.04;78.67
20350;BME280;10332;50.208;18.988;2023-03-21T09:12:53;98064.38;;;15.09;76.00
20350;BME280;10332;50.208;18.988;2023-03-21T09:15:24;98066.41;;;14.86;76.77
20350;BME280;10332;50.208;18.988;2023-03-21T09:17:56;98068.47;;;14.19;78.50
20350;BME280;10332;50.208;18.988;2023-03-21T09:20:26;98070.09;;;13.79;79.37
20350;BME280;10332;50.208;18.988;2023-03-21T09:22:58;98073.81;;;13.76;80.11
20350;BME280;10332;50.208;18.988;2023-03-21T09:25:28;98077.50;;;13.74;79.74
20350;BME280;10332;50.208;18.988;2023-03-21T09:28:01;98076.75;;;13.83;79.78
20350;BME280;10332;50.208;18.988;2023-03-21T09:30:34;98082.25;;;13.80;79.84
20350;BME280;10332;50.208;18.988;2023-03-21T09:33:04;98082.13;;;13.81;79.68
20350;BME280;10332;50.208;18.988;2023-03-21T09:35:35;98092.88;;;13.78;79.86
20350;BME280;10332;50.208;18.988;2023-03-21T09:38:04;98084.53;;;13.84;78.88
20350;BME280;10332;50.208;18.988;2023-03-21T09:49:39;98097.66;;;14.05;77.18
20350;BME280;10332;50.208;18.988;2023-03-21T09:52:20;98087.59;;;14.10;76.54
20350;BME280;10332;50.208;18.988;2023-03-21T09:54:51;98093.31;;;13.95;76.81
20350;BME280;10332;50.208;18.988;2023-03-21T09:57:37;98101.47;;;13.80;75.48
20350;BME280;10332;50.208;18.988;2023-03-21T10:04:26;98093.97;;;13.64;75.66
20350;BME280;10332;50.208;18.988;2023-03-21T10:07:00;98096.75;;;13.63;76.67
20350;BME280;10332;50.208;18.988;2023-03-21T10:09:30;98092.19;;;13.76;76.83
20350;BME280;10332;50.208;18.988;2023-03-21T10:12:24;98091.75;;;13.92;75.31
20350;BME280;10332;50.208;18.988;2023-03-21T10:14:59;98075.84;;;14.05;75.13
20350;BME280;10332;50.208;18.988;2023-03-21T10:17:38;98081.44;;;14.11;75.26
20350;BME280;10332;50.208;18.988;2023-03-21T10:20:16;98097.53;;;14.07;74.38
20350;BME280;10332;50.208;18.988;2023-03-21T10:22:47;98088.34;;;13.80;74.92
20350;BME280;10332;50.208;18.988;2023-03-21T10:25:20;98090.41;;;13.98;75.27
20350;BME280;10332;50.208;18.988;2023-03-21T10:27:50;98082.63;;;14.28;74.25
20350;BME280;10332;50.208;18.988;2023-03-21T10:34:44;98089.22;;;14.23;71.94
20350;BME280;10332;50.208;18.988;2023-03-21T10:37:13;98091.09;;;14.11;71.64
20350;BME280;10332;50.208;18.988;2023-03-21T10:39:48;98094.97;;;13.96;72.25
20350;BME280;10332;50.208;18.988;2023-03-21T10:42:28;98086.28;;;14.16;71.33
20350;BME280;10332;50.208;18.988;2023-03-21T10:44:58;98093.88;;;14.19;70.73
20350;BME280;10332;50.208;18.988;2023-03-21T10:47:31;98089.00;;;14.46;70.71
20350;BME280;10332;50.208;18.988;2023-03-21T10:50:12;98086.81;;;14.52;69.95
20350;BME280;10332;50.208;18.988;2023-03-21T10:52:58;98093.94;;;14.61;69.25
20350;BME280;10332;50.208;18.988;2023-03-21T10:55:33;98098.03;;;14.54;68.86
20350;BME280;10332;50.208;18.988;2023-03-21T10:58:14;98098.47;;;14.38;69.02
20350;BME280;10332;50.208;18.988;2023-03-21T11:00:46;98086.41;;;14.35;68.91
20350;BME280;10332;50.208;18.988;2023-03-21T11:03:29;98094.56;;;14.32;69.01
20350;BME280;10332;50.208;18.988;2023-03-21T11:06:07;98097.38;;;14.40;68.76
20350;BME280;10332;50.208;18.988;2023-03-21T11:09:15;98090.69;;;14.78;67.74
20350;BME280;10332;50.208;18.988;2023-03-21T11:12:11;98090.66;;;14.99;67.25
20350;BME280;10332;50.208;18.988;2023-03-21T11:14:45;98086.63;;;14.95;67.85
20350;BME280;10332;50.208;18.988;2023-03-21T11:20:04;98085.19;;;15.61;65.30
20350;BME280;10332;50.208;18.988;2023-03-21T11:22:41;98084.09;;;16.22;63.64
20350;BME280;10332;50.208;18.988;2023-03-21T11:25:30;98086.94;;;16.77;61.67
20350;BME280;10332;50.208;18.988;2023-03-21T11:28:07;98072.94;;;18.74;56.41
20350;BME280;10332;50.208;18.988;2023-03-21T11:30:35;98071.84;;;19.61;55.13
20350;BME280;10332;50.208;18.988;2023-03-21T11:33:05;98069.16;;;19.11;53.23
20350;BME280;10332;50.208;18.988;2023-03-21T11:35:37;98068.28;;;18.68;53.28
20350;BME280;10332;50.208;18.988;2023-03-21T11:38:23;98060.16;;;18.43;53.92
20350;BME280;10332;50.208;18.988;2023-03-21T11:40:59;98069.41;;;18.04;53.58
20350;BME280;10332;50.208;18.988;2023-03-21T11:43:38;98063.28;;;17.68;54.59
20350;BME280;10332;50.208;18.988;2023-03-21T11:46:13;98062.97;;;17.53;55.33
20350;BME280;10332;50.208;18.988;2023-03-21T11:48:46;98061.03;;;17.00;56.86
20350;BME280;10332;50.208;18.988;2023-03-21T11:51:36;98069.66;;;16.16;58.62
20350;BME280;10332;50.208;18.988;2023-03-21T11:56:48;98070.81;;;15.75;61.92
20350;BME280;10332;50.208;18.988;2023-03-21T11:59:39;98068.84;;;15.68;62.27
20350;BME280;10332;50.208;18.988;2023-03-21T12:02:43;98068.19;;;15.35;63.42
20350;BME280;10332;50.208;18.988;2023-03-21T12:05:57;98063.19;;;15.13;64.41
20350;BME280;10332;50.208;18.988;2023-03-21T12:09:45;98059.47;;;14.85;65.25
20350;BME280;10332;50.208;18.988;2023-03-21T12:20:50;98050.72;;;14.74;66.27
20350;BME280;10332;50.208;18.988;2023-03-21T12:24:02;98058.09;;;14.39;67.22
20350;BME280;10332;50.208;18.988;2023-03-21T12:26:58;98049.22;;;14.30;67.74
20350;BME280;10332;50.208;18.988;2023-03-21T12:40:36;98040.22;;;13.91;70.12
20350;BME280;10332;50.208;18.988;2023-03-21T12:49:03;98043.66;;;13.91;70.94
20350;BME280;10332;50.208;18.988;2023-03-21T12:51:42;98029.84;;;13.89;71.04
20350;BME280;10332;50.208;18.988;2023-03-21T12:57:32;98028.25;;;13.98;70.49
20350;BME280;10332;50.208;18.988;2023-03-21T13:00:14;98027.69;;;14.15;70.47
20350;BME280;10332;50.208;18.988;2023-03-21T13:02:54;98026.09;;;14.03;70.43
20350;BME280;10332;50.208;18.988;2023-03-21T13:05:38;98016.97;;;14.07;70.44
20350;BME280;10332;50.208;18.988;2023-03-21T13:08:23;98021.66;;;14.04;70.03
20350;BME280;10332;50.208;18.988;2023-03-21T13:10:54;98014.09;;;13.89;70.63
20350;BME280;10332;50.208;18.988;2023-03-21T13:16:40;98015.59;;;14.03;69.32
20350;BME280;10332;50.208;18.988;2023-03-21T13:19:44;98016.63;;;14.12;69.11
20350;BME280;10332;50.208;18.988;2023-03-21T13:22:27;98014.47;;;14.27;68.56
20350;BME280;10332;50.208;18.988;2023-03-21T13:25:21;98012.28;;;14.53;68.08
20350;BME280;10332;50.208;18.988;2023-03-21T13:28:00;98008.25;;;14.28;67.89
20350;BME280;10332;50.208;18.988;2023-03-21T13:30:31;98010.19;;;14.46;67.76
20350;BME280;10332;50.208;18.988;2023-03-21T13:33:19;98016.16;;;14.48;67.22
20350;BME280;10332;50.208;18.988;2023-03-21T13:35:59;98011.97;;;14.67;67.18
20350;BME280;10332;50.208;18.988;2023-03-21T13:38:35;98010.88;;;14.79;66.22
20350;BME280;10332;50.208;18.988;2023-03-21T13:46:44;98016.94;;;15.10;64.45
20350;BME280;10332;50.208;18.988;2023-03-21T13:49:38;98016.56;;;15.34;63.74
20350;BME280;10332;50.208;18.988;2023-03-21T13:52:27;98006.63;;;15.57;63.35
20350;BME280;10332;50.208;18.988;2023-03-21T13:54:56;98009.44;;;15.75;63.15
20350;BME280;10332;50.208;18.988;2023-03-21T14:00:26;98004.03;;;15.67;62.73
20350;BME280;10332;50.208;18.988;2023-03-21T14:03:12;98002.34;;;15.56;62.10
20350;BME280;10332;50.208;18.988;2023-03-21T14:09:35;97998.59;;;15.97;60.31
20350;BME280;10332;50.208;18.988;2023-03-21T14:12:12;97999.94;;;16.21;60.17
20350;BME280;10332;50.208;18.988;2023-03-21T14:14:45;97998.41;;;16.28;59.71
20350;BME280;10332;50.208;18.988;2023-03-21T14:17:31;97987.97;;;16.45;58.99
20350;BME280;10332;50.208;18.988;2023-03-21T14:20:14;97985.59;;;16.42;59.40
20350;BME280;10332;50.208;18.988;2023-03-21T14:22:47;97984.41;;;16.64;59.18
20350;BME280;10332;50.208;18.988;2023-03-21T14:25:19;97980.59;;;16.49;58.28
20350;BME280;10332;50.208;18.988;2023-03-21T14:27:54;97989.28;;;16.12;58.52
20350;BME280;10332;50.208;18.988;2023-03-21T14:30:32;97992.38;;;15.88;59.41
20350;BME280;10332;50.208;18.988;2023-03-21T14:33:22;97992.38;;;15.79;59.84
20350;BME280;10332;50.208;18.988;2023-03-21T14:35:50;97996.13;;;15.76;60.01
20350;BME280;10332;50.208;18.988;2023-03-21T14:38:33;97987.22;;;15.48;60.68
20350;BME280;10332;50.208;18.988;2023-03-21T14:41:01;97990.66;;;15.20;61.95
20350;BME280;10332;50.208;18.988;2023-03-21T14:43:29;97986.91;;;15.03;62.59
20350;BME280;10332;50.208;18.988;2023-03-21T14:46:00;97987.69;;;14.84;63.32
20350;BME280;10332;50.208;18.988;2023-03-21T14:48:34;97986.06;;;14.62;63.76
20350;BME280;10332;50.208;18.988;2023-03-21T14:51:05;97985.13;;;14.42;64.67
20350;BME280;10332;50.208;18.988;2023-03-21T14:53:40;97985.06;;;14.33;65.14
20350;BME280;10332;50.208;18.988;2023-03-21T14:56:24;97982.91;;;14.17;66.02